PWSweather.com
Personal Weather Stations
Station Observations
THRCKWTHR1
Aveley, EssexGB RM154EL

AveleyEssexGB RM154EL

Lat: 51.5000552, Lon: 0.2501753000000235

Elevation: 98.5

Station Type: Oregon Scientific WMR88

www.facebook.com/thurrockweather

High Low Average
Temperature 47.3°F8.5°F 37.2°F2.9°F 41.8°F5.4°F
Dew Point 46.8°F8.2°F 36.7°F2.6°F 41.2°F5.1°F
Winds 18.6 mph SSW29.9 mph SSW Calm Calm 6.0 mph 9.7 mph
Wind Gusts 18.6 mph29.9 mph 4.4 mph7.1 mph 10.0 mph16.1 mph
Humidity 98% 98% 98%
Pressure 29.65 in1004.10 in 29.33 in993.20 in -
Precipitation 2.52 in64.00 in - -
Hour Temp Dew Point Humidity Winds Wind Gusts Pressure Precip Precip Rate Daily Precip Total
08:15 AM 41.0°F5.0°C 40.5°F4.7°C 98% 7.6 mph SW12.2 kmh SW 7.6 mph12.2 kmh 29.65 in1004.1 mb 0.00 in0.0 mm 0.00 in0.0 mm 0.08 in2.0 mm
08:20 AM 41.0°F5.0°C 40.5°F4.7°C 98% 4.4 mph SSW7.1 kmh SSW 7.6 mph12.2 kmh 29.65 in1004.1 mb 0.00 in0.0 mm 0.00 in0.0 mm 0.08 in2.0 mm
08:25 AM 41.0°F5.0°C 40.5°F4.7°C 98% 4.6 mph SSW7.4 kmh SSW 7.6 mph12.2 kmh 29.65 in1004.1 mb 0.00 in0.0 mm 0.00 in0.0 mm 0.08 in2.0 mm
08:30 AM 41.0°F5.0°C 40.5°F4.7°C 98% 4.1 mph SW6.6 kmh SW 7.6 mph12.2 kmh 29.65 in1004.1 mb 0.00 in0.0 mm 0.00 in0.0 mm 0.08 in2.0 mm
08:35 AM 41.2°F5.1°C 40.7°F4.8°C 98% Calm Calm 4.4 mph7.1 kmh 29.65 in1004.1 mb 0.00 in0.0 mm 0.00 in0.0 mm 0.08 in2.0 mm
08:40 AM 41.2°F5.1°C 40.7°F4.8°C 98% 5.2 mph SW8.4 kmh SW 7.1 mph11.4 kmh 29.65 in1004.1 mb 0.00 in0.0 mm 0.00 in0.0 mm 0.08 in2.0 mm
08:45 AM 41.2°F5.1°C 40.7°F4.8°C 98% 4.4 mph SW7.1 kmh SW 7.6 mph12.2 kmh 29.65 in1004.1 mb 0.00 in0.0 mm 0.00 in0.0 mm 0.08 in2.0 mm
08:50 AM 41.4°F5.2°C 40.8°F4.9°C 98% 2.5 mph SSW4.0 kmh SSW 7.6 mph12.2 kmh 29.65 in1004.1 mb 0.00 in0.0 mm 0.00 in0.0 mm 0.08 in2.0 mm
08:55 AM 41.4°F5.2°C 40.8°F4.9°C 98% 1.4 mph SSW2.3 kmh SSW 5.2 mph8.4 kmh 29.65 in1004.1 mb 0.00 in0.0 mm 0.00 in0.0 mm 0.08 in2.0 mm
09:00 AM 41.5°F5.3°C 41.0°F5.0°C 98% 4.4 mph SSW7.1 kmh SSW 4.6 mph7.4 kmh 29.65 in1004.1 mb 0.00 in0.0 mm 0.00 in0.0 mm 0.08 in2.0 mm
09:05 AM 41.5°F5.3°C 41.0°F5.0°C 98% 9.8 mph SSW15.8 kmh SSW 9.8 mph15.8 kmh 29.65 in1004.1 mb 0.00 in0.0 mm 0.00 in0.0 mm 0.08 in2.0 mm
09:10 AM 41.7°F5.4°C 41.2°F5.1°C 98% 3.5 mph SSW5.6 kmh SSW 9.8 mph15.8 kmh 29.65 in1004.1 mb 0.00 in0.0 mm 0.00 in0.0 mm 0.08 in2.0 mm
09:15 AM 41.7°F5.4°C 41.2°F5.1°C 98% 7.9 mph SSW12.7 kmh SSW 7.9 mph12.7 kmh 29.65 in1004.1 mb 0.00 in0.0 mm 0.00 in0.0 mm 0.08 in2.0 mm
09:20 AM 41.9°F5.5°C 41.4°F5.2°C 98% 6.0 mph SW9.7 kmh SW 7.9 mph12.7 kmh 29.65 in1004.1 mb 0.00 in0.0 mm 0.00 in0.0 mm 0.08 in2.0 mm
09:25 AM 42.1°F5.6°C 41.6°F5.3°C 98% 6.0 mph SSW9.7 kmh SSW 9.3 mph15.0 kmh 29.62 in1003.0 mb 0.00 in0.0 mm 0.00 in0.0 mm 0.08 in2.0 mm
09:30 AM 42.1°F5.6°C 41.6°F5.3°C 98% 7.9 mph SSW12.7 kmh SSW 9.3 mph15.0 kmh 29.62 in1003.0 mb 0.00 in0.0 mm 0.00 in0.0 mm 0.08 in2.0 mm
09:35 AM 42.3°F5.7°C 41.7°F5.4°C 98% 2.5 mph SSW4.0 kmh SSW 7.9 mph12.7 kmh 29.62 in1003.0 mb 0.00 in0.0 mm 0.00 in0.0 mm 0.08 in2.0 mm
09:40 AM 42.4°F5.8°C 41.9°F5.5°C 98% 3.5 mph SW5.6 kmh SW 8.7 mph14.0 kmh 29.62 in1003.0 mb 0.00 in0.0 mm 0.00 in0.0 mm 0.08 in2.0 mm
09:45 AM 42.4°F5.8°C 41.9°F5.5°C 98% 4.6 mph SW7.4 kmh SW 8.7 mph14.0 kmh 29.62 in1003.0 mb 0.00 in0.0 mm 0.00 in0.0 mm 0.08 in2.0 mm
09:50 AM 42.6°F5.9°C 42.1°F5.6°C 98% 5.2 mph SW8.4 kmh SW 9.6 mph15.4 kmh 29.62 in1003.0 mb 0.00 in0.0 mm 0.00 in0.0 mm 0.08 in2.0 mm
09:55 AM 42.6°F5.9°C 42.1°F5.6°C 98% 7.6 mph SW12.2 kmh SW 9.6 mph15.4 kmh 29.62 in1003.0 mb 0.00 in0.0 mm 0.00 in0.0 mm 0.08 in2.0 mm
10:00 AM 42.8°F6.0°C 42.3°F5.7°C 98% 7.9 mph SW12.7 kmh SW 9.6 mph15.4 kmh 29.62 in1003.0 mb 0.00 in0.0 mm 0.00 in0.0 mm 0.08 in2.0 mm
10:05 AM 43.0°F6.1°C 42.5°F5.8°C 98% 3.8 mph SW6.1 kmh SW 7.9 mph12.7 kmh 29.62 in1003.0 mb 0.00 in0.0 mm 0.00 in0.0 mm 0.08 in2.0 mm
10:10 AM 43.0°F6.1°C 42.5°F5.8°C 98% 6.5 mph SSW10.5 kmh SSW 7.1 mph11.4 kmh 29.62 in1003.0 mb 0.00 in0.0 mm 0.00 in0.0 mm 0.08 in2.0 mm
10:15 AM 43.2°F6.2°C 42.6°F5.9°C 98% 4.4 mph SW7.1 kmh SW 7.9 mph12.7 kmh 29.62 in1003.0 mb 0.00 in0.0 mm 0.00 in0.0 mm 0.08 in2.0 mm
10:20 AM 43.3°F6.3°C 42.8°F6.0°C 98% 5.2 mph SW8.4 kmh SW 7.9 mph12.7 kmh 29.62 in1003.0 mb 0.00 in0.0 mm 0.00 in0.0 mm 0.08 in2.0 mm
10:25 AM 43.5°F6.4°C 43.0°F6.1°C 98% 3.8 mph SSW6.1 kmh SSW 8.7 mph14.0 kmh 29.62 in1003.0 mb 0.00 in0.0 mm 0.00 in0.0 mm 0.08 in2.0 mm
10:30 AM 43.7°F6.5°C 43.2°F6.2°C 98% 7.6 mph SSW12.2 kmh SSW 8.7 mph14.0 kmh 29.62 in1003.0 mb 0.00 in0.0 mm 0.00 in0.0 mm 0.08 in2.0 mm
10:35 AM 43.9°F6.6°C 43.4°F6.3°C 98% 5.7 mph SW9.2 kmh SW 7.6 mph12.2 kmh 29.62 in1003.0 mb 0.00 in0.0 mm 0.00 in0.0 mm 0.08 in2.0 mm
10:40 AM 43.9°F6.6°C 43.4°F6.3°C 98% 4.4 mph SW7.1 kmh SW 9.3 mph15.0 kmh 29.62 in1003.0 mb 0.00 in0.0 mm 0.00 in0.0 mm 0.08 in2.0 mm
10:45 AM 43.9°F6.6°C 43.4°F6.3°C 98% 6.0 mph SW9.7 kmh SW 9.3 mph15.0 kmh 29.62 in1003.0 mb 0.00 in0.0 mm 0.00 in0.0 mm 0.08 in2.0 mm
10:50 AM 44.1°F6.7°C 43.5°F6.4°C 98% 5.7 mph SW9.2 kmh SW 9.6 mph15.4 kmh 29.62 in1003.0 mb 0.00 in0.0 mm 0.00 in0.0 mm 0.08 in2.0 mm
10:55 AM 44.1°F6.7°C 43.5°F6.4°C 98% 8.5 mph SW13.7 kmh SW 9.6 mph15.4 kmh 29.59 in1002.0 mb 0.00 in0.0 mm 0.00 in0.0 mm 0.08 in2.0 mm
11:00 AM 44.1°F6.7°C 43.5°F6.4°C 98% 6.8 mph SW10.9 kmh SW 8.5 mph13.7 kmh 29.59 in1002.0 mb 0.00 in0.0 mm 0.00 in0.0 mm 0.08 in2.0 mm
11:05 AM 44.1°F6.7°C 43.5°F6.4°C 98% 12.0 mph SW19.3 kmh SW 12.0 mph19.3 kmh 29.59 in1002.0 mb 0.00 in0.0 mm 0.00 in0.0 mm 0.08 in2.0 mm
11:10 AM 44.1°F6.7°C 43.5°F6.4°C 98% 2.5 mph SSW4.0 kmh SSW 12.0 mph19.3 kmh 29.59 in1002.0 mb 0.00 in0.0 mm 0.00 in0.0 mm 0.08 in2.0 mm
11:15 AM 44.2°F6.8°C 43.7°F6.5°C 98% 1.1 mph SW1.8 kmh SW 12.0 mph19.3 kmh 29.59 in1002.0 mb 0.00 in0.0 mm 0.00 in0.0 mm 0.08 in2.0 mm
11:20 AM 44.4°F6.9°C 43.9°F6.6°C 98% 3.5 mph SSW5.6 kmh SSW 9.6 mph15.4 kmh 29.59 in1002.0 mb 0.00 in0.0 mm 0.00 in0.0 mm 0.08 in2.0 mm
11:25 AM 44.6°F7.0°C 44.1°F6.7°C 98% 3.3 mph SSW5.3 kmh SSW 6.8 mph10.9 kmh 29.56 in1001.0 mb 0.00 in0.0 mm 0.00 in0.0 mm 0.08 in2.0 mm
11:30 AM 44.6°F7.0°C 44.1°F6.7°C 98% 9.8 mph SW15.8 kmh SW 9.8 mph15.8 kmh 29.56 in1001.0 mb 0.00 in0.0 mm 0.00 in0.0 mm 0.08 in2.0 mm
11:35 AM 44.8°F7.1°C 44.3°F6.8°C 98% 6.5 mph SW10.5 kmh SW 9.8 mph15.8 kmh 29.56 in1001.0 mb 0.00 in0.0 mm 0.00 in0.0 mm 0.08 in2.0 mm
11:40 AM 45.0°F7.2°C 44.4°F6.9°C 98% 4.4 mph SSW7.1 kmh SSW 9.3 mph15.0 kmh 29.56 in1001.0 mb 0.00 in0.0 mm 0.00 in0.0 mm 0.08 in2.0 mm
11:45 AM 45.0°F7.2°C 44.4°F6.9°C 98% 5.7 mph SSW9.2 kmh SSW 7.9 mph12.7 kmh 29.56 in1001.0 mb 0.00 in0.0 mm 0.00 in0.0 mm 0.08 in2.0 mm
11:50 AM 45.1°F7.3°C 44.6°F7.0°C 98% 6.0 mph SW9.7 kmh SW 7.4 mph11.9 kmh 29.56 in1001.0 mb 0.00 in0.0 mm 0.00 in0.0 mm 0.08 in2.0 mm
11:55 AM 45.1°F7.3°C 44.6°F7.0°C 98% 12.8 mph SW20.6 kmh SW 12.8 mph20.6 kmh 29.53 in1000.0 mb 0.00 in0.0 mm 0.00 in0.0 mm 0.08 in2.0 mm
12:00 PM 45.1°F7.3°C 44.6°F7.0°C 98% 4.1 mph SW6.6 kmh SW 12.8 mph20.6 kmh 29.53 in1000.0 mb 0.00 in0.0 mm 0.00 in0.0 mm 0.08 in2.0 mm
12:05 PM 45.1°F7.3°C 44.6°F7.0°C 98% 7.1 mph SW11.4 kmh SW 10.4 mph16.7 kmh 29.53 in1000.0 mb 0.00 in0.0 mm 0.00 in0.0 mm 0.08 in2.0 mm
12:10 PM 45.3°F7.4°C 44.8°F7.1°C 98% 7.4 mph SW11.9 kmh SW 10.4 mph16.7 kmh 29.53 in1000.0 mb 0.00 in0.0 mm 0.00 in0.0 mm 0.08 in2.0 mm
12:15 PM 45.3°F7.4°C 44.8°F7.1°C 98% 4.4 mph SSW7.1 kmh SSW 9.6 mph15.4 kmh 29.53 in1000.0 mb 0.00 in0.0 mm 0.00 in0.0 mm 0.08 in2.0 mm
12:20 PM 45.3°F7.4°C 44.8°F7.1°C 98% 4.1 mph SSW6.6 kmh SSW 7.4 mph11.9 kmh 29.53 in1000.0 mb 0.00 in0.0 mm 0.00 in0.0 mm 0.08 in2.0 mm
12:25 PM 45.5°F7.5°C 45.0°F7.2°C 98% 6.8 mph SSW10.9 kmh SSW 6.8 mph10.9 kmh 29.53 in1000.0 mb 0.00 in0.0 mm 0.00 in0.0 mm 0.08 in2.0 mm
12:30 PM 45.7°F7.6°C 45.1°F7.3°C 98% 6.5 mph SW10.5 kmh SW 10.6 mph17.1 kmh 29.53 in1000.0 mb 0.00 in0.0 mm 0.00 in0.0 mm 0.08 in2.0 mm
12:35 PM 45.7°F7.6°C 45.1°F7.3°C 98% 7.6 mph SW12.2 kmh SW 12.0 mph19.3 kmh 29.53 in1000.0 mb 0.00 in0.0 mm 0.00 in0.0 mm 0.08 in2.0 mm
12:40 PM 45.7°F7.6°C 45.1°F7.3°C 98% 7.6 mph SW12.2 kmh SW 12.0 mph19.3 kmh 29.50 in999.0 mb 0.00 in0.0 mm 0.00 in0.0 mm 0.08 in2.0 mm
12:45 PM 45.9°F7.7°C 45.3°F7.4°C 98% 6.5 mph SW10.5 kmh SW 10.6 mph17.1 kmh 29.50 in999.0 mb 0.00 in0.0 mm 0.00 in0.0 mm 0.08 in2.0 mm
12:50 PM 45.9°F7.7°C 45.3°F7.4°C 98% 7.4 mph SSW11.9 kmh SSW 10.6 mph17.1 kmh 29.50 in999.0 mb 0.00 in0.0 mm 0.00 in0.0 mm 0.08 in2.0 mm
12:55 PM 46.0°F7.8°C 45.5°F7.5°C 98% 4.4 mph SW7.1 kmh SW 12.6 mph20.3 kmh 29.50 in999.0 mb 0.00 in0.0 mm 0.00 in0.0 mm 0.08 in2.0 mm
01:00 PM 46.2°F7.9°C 45.7°F7.6°C 98% 8.7 mph SW14.0 kmh SW 12.6 mph20.3 kmh 29.50 in999.0 mb 0.00 in0.0 mm 0.00 in0.0 mm 0.08 in2.0 mm
01:05 PM 46.2°F7.9°C 45.7°F7.6°C 98% 4.4 mph SW7.1 kmh SW 9.0 mph14.5 kmh 29.50 in999.0 mb 0.00 in0.0 mm 0.00 in0.0 mm 0.08 in2.0 mm
01:10 PM 46.0°F7.8°C 45.5°F7.5°C 98% 9.3 mph SW15.0 kmh SW 9.3 mph15.0 kmh 29.47 in998.0 mb 0.00 in0.0 mm 0.00 in0.0 mm 0.08 in2.0 mm
01:15 PM 46.0°F7.8°C 45.5°F7.5°C 98% 3.8 mph SW6.1 kmh SW 9.3 mph15.0 kmh 29.47 in998.0 mb 0.00 in0.0 mm 0.00 in0.0 mm 0.08 in2.0 mm
01:20 PM 46.0°F7.8°C 45.5°F7.5°C 98% 12.8 mph SW20.6 kmh SW 12.8 mph20.6 kmh 29.47 in998.0 mb 0.00 in0.0 mm 0.00 in0.0 mm 0.08 in2.0 mm
01:25 PM 46.2°F7.9°C 45.7°F7.6°C 98% 3.0 mph SW4.8 kmh SW 12.8 mph20.6 kmh 29.45 in997.3 mb 0.00 in0.0 mm 0.00 in0.0 mm 0.08 in2.0 mm
01:30 PM 46.4°F8.0°C 45.9°F7.7°C 98% 4.1 mph SSW6.6 kmh SSW 10.4 mph16.7 kmh 29.45 in997.3 mb 0.00 in0.0 mm 0.00 in0.0 mm 0.08 in2.0 mm
01:35 PM 46.4°F8.0°C 45.9°F7.7°C 98% 9.0 mph SSW14.5 kmh SSW 10.4 mph16.7 kmh 29.45 in997.3 mb 0.00 in0.0 mm 0.00 in0.0 mm 0.08 in2.0 mm
01:40 PM 46.6°F8.1°C 46.0°F7.8°C 98% 4.1 mph SSW6.6 kmh SSW 10.4 mph16.7 kmh 29.45 in997.3 mb 0.00 in0.0 mm 0.00 in0.0 mm 0.08 in2.0 mm
01:45 PM 46.8°F8.2°C 46.2°F7.9°C 98% 7.9 mph SW12.7 kmh SW 9.0 mph14.5 kmh 29.45 in997.3 mb 0.00 in0.0 mm 0.00 in0.0 mm 0.08 in2.0 mm
01:50 PM 46.8°F8.2°C 46.2°F7.9°C 98% 3.5 mph SW5.6 kmh SW 9.6 mph15.4 kmh 29.45 in997.3 mb 0.00 in0.0 mm 0.00 in0.0 mm 0.08 in2.0 mm
01:55 PM 46.8°F8.2°C 46.2°F7.9°C 98% 6.0 mph SW9.7 kmh SW 9.6 mph15.4 kmh 29.41 in995.9 mb 0.00 in0.0 mm 0.00 in0.0 mm 0.08 in2.0 mm
02:00 PM 46.9°F8.3°C 46.4°F8.0°C 98% 3.0 mph SSW4.8 kmh SSW 7.9 mph12.7 kmh 29.41 in995.9 mb 0.00 in0.0 mm 0.00 in0.0 mm 0.08 in2.0 mm
02:05 PM 46.9°F8.3°C 46.4°F8.0°C 98% 6.5 mph SSW10.5 kmh SSW 9.3 mph15.0 kmh 29.41 in995.9 mb 0.00 in0.0 mm 0.00 in0.0 mm 0.08 in2.0 mm
02:10 PM 47.1°F8.4°C 46.6°F8.1°C 98% 9.3 mph SW15.0 kmh SW 9.3 mph15.0 kmh 29.41 in995.9 mb 0.00 in0.0 mm 0.00 in0.0 mm 0.08 in2.0 mm
02:15 PM 47.1°F8.4°C 46.6°F8.1°C 98% 7.9 mph SW12.7 kmh SW 10.4 mph16.7 kmh 29.41 in995.9 mb 0.00 in0.0 mm 0.00 in0.0 mm 0.08 in2.0 mm
02:20 PM 46.9°F8.3°C 46.4°F8.0°C 98% 8.7 mph SW14.0 kmh SW 11.7 mph18.8 kmh 29.41 in995.9 mb 0.00 in0.0 mm 0.00 in0.0 mm 0.08 in2.0 mm
02:25 PM 46.9°F8.3°C 46.4°F8.0°C 98% 12.3 mph SW19.8 kmh SW 12.3 mph19.8 kmh 29.39 in995.3 mb 0.00 in0.0 mm 0.00 in0.0 mm 0.08 in2.0 mm
02:30 PM 47.1°F8.4°C 46.6°F8.1°C 98% 4.6 mph SW7.4 kmh SW 12.8 mph20.6 kmh 29.39 in995.3 mb 0.00 in0.0 mm 0.00 in0.0 mm 0.08 in2.0 mm
02:35 PM 46.9°F8.3°C 46.4°F8.0°C 98% 3.8 mph SW6.1 kmh SW 12.8 mph20.6 kmh 29.39 in995.3 mb 0.00 in0.0 mm 0.00 in0.0 mm 0.08 in2.0 mm
02:40 PM 47.1°F8.4°C 46.6°F8.1°C 98% 7.4 mph SW11.9 kmh SW 9.8 mph15.8 kmh 29.39 in995.3 mb 0.00 in0.0 mm 0.00 in0.0 mm 0.08 in2.0 mm
02:45 PM 47.1°F8.4°C 46.6°F8.1°C 98% 6.0 mph SW9.7 kmh SW 9.3 mph15.0 kmh 29.39 in995.3 mb 0.00 in0.0 mm 0.00 in0.0 mm 0.08 in2.0 mm
02:50 PM 47.3°F8.5°C 46.8°F8.2°C 98% 4.4 mph SW7.1 kmh SW 10.4 mph16.7 kmh 29.39 in995.3 mb 0.00 in0.0 mm 0.00 in0.0 mm 0.08 in2.0 mm
02:55 PM 47.1°F8.4°C 46.6°F8.1°C 98% 7.9 mph SSW12.7 kmh SSW 10.6 mph17.1 kmh 29.39 in995.3 mb 0.00 in0.0 mm 0.00 in0.0 mm 0.08 in2.0 mm
03:00 PM 46.9°F8.3°C 46.4°F8.0°C 98% 6.0 mph SSW9.7 kmh SSW 10.6 mph17.1 kmh 29.39 in995.3 mb 0.00 in0.0 mm 0.00 in0.0 mm 0.08 in2.0 mm
03:05 PM 46.8°F8.2°C 46.2°F7.9°C 98% 2.5 mph SSW4.0 kmh SSW 9.3 mph15.0 kmh 29.39 in995.3 mb 0.00 in0.0 mm 0.00 in0.0 mm 0.08 in2.0 mm
03:10 PM 46.8°F8.2°C 46.2°F7.9°C 98% 7.1 mph SW11.4 kmh SW 12.6 mph20.3 kmh 29.36 in994.2 mb 0.00 in0.0 mm 0.00 in0.0 mm 0.08 in2.0 mm
03:15 PM 46.8°F8.2°C 46.2°F7.9°C 98% 9.0 mph SW14.5 kmh SW 12.6 mph20.3 kmh 29.36 in994.2 mb 0.00 in0.0 mm 0.00 in0.0 mm 0.08 in2.0 mm
03:20 PM 46.8°F8.2°C 46.2°F7.9°C 98% 4.9 mph SW7.9 kmh SW 11.7 mph18.8 kmh 29.36 in994.2 mb 0.00 in0.0 mm 0.00 in0.0 mm 0.08 in2.0 mm
03:25 PM 46.8°F8.2°C 46.2°F7.9°C 98% 6.0 mph SW9.7 kmh SW 9.0 mph14.5 kmh 29.36 in994.2 mb 0.00 in0.0 mm 0.00 in0.0 mm 0.08 in2.0 mm
03:30 PM 46.8°F8.2°C 46.2°F7.9°C 98% 10.6 mph SSW17.1 kmh SSW 10.6 mph17.1 kmh 29.36 in994.2 mb 0.00 in0.0 mm 0.00 in0.0 mm 0.08 in2.0 mm
03:35 PM 46.9°F8.3°C 46.4°F8.0°C 98% 4.1 mph SW6.6 kmh SW 14.7 mph23.7 kmh 29.36 in994.2 mb 0.00 in0.0 mm 0.00 in0.0 mm 0.08 in2.0 mm
03:40 PM 46.9°F8.3°C 46.4°F8.0°C 98% 5.2 mph SW8.4 kmh SW 14.7 mph23.7 kmh 29.36 in994.2 mb 0.00 in0.0 mm 0.00 in0.0 mm 0.08 in2.0 mm
03:45 PM 46.8°F8.2°C 46.2°F7.9°C 98% 7.9 mph SW12.7 kmh SW 14.7 mph23.7 kmh 29.36 in994.2 mb 0.05 in1.3 mm 0.60 in15.2 mm 0.13 in3.3 mm
03:50 PM 46.6°F8.1°C 46.0°F7.8°C 98% 4.9 mph S7.9 kmh S 7.9 mph12.7 kmh 29.36 in994.2 mb 0.09 in2.3 mm 0.48 in12.2 mm 0.17 in4.3 mm
03:55 PM 46.2°F7.9°C 45.7°F7.6°C 98% 16.9 mph WNW27.2 kmh WNW 16.9 mph27.2 kmh 29.36 in994.2 mb 0.13 in3.3 mm 0.48 in12.2 mm 0.21 in5.3 mm
04:00 PM 45.7°F7.6°C 45.1°F7.3°C 98% 6.8 mph WSW10.9 kmh WSW 16.9 mph27.2 kmh 29.36 in994.2 mb 0.13 in3.3 mm 0.00 in0.0 mm 0.21 in5.3 mm
04:05 PM 45.5°F7.5°C 45.0°F7.2°C 98% 10.6 mph SW17.1 kmh SW 15.3 mph24.6 kmh 29.36 in994.2 mb 0.17 in4.3 mm 0.48 in12.2 mm 0.25 in6.4 mm
04:10 PM 45.1°F7.3°C 44.6°F7.0°C 98% 9.8 mph WSW15.8 kmh WSW 15.3 mph24.6 kmh 29.39 in995.3 mb 0.17 in4.3 mm 0.00 in0.0 mm 0.25 in6.4 mm
04:15 PM 44.8°F7.1°C 44.3°F6.8°C 98% 7.9 mph W12.7 kmh W 14.7 mph23.7 kmh 29.39 in995.3 mb 0.17 in4.3 mm 0.00 in0.0 mm 0.25 in6.4 mm
04:20 PM 44.4°F6.9°C 43.9°F6.6°C 98% 3.5 mph WSW5.6 kmh WSW 9.8 mph15.8 kmh 29.39 in995.3 mb 0.17 in4.3 mm 0.00 in0.0 mm 0.25 in6.4 mm
04:25 PM 44.1°F6.7°C 43.5°F6.4°C 98% 3.5 mph WSW5.6 kmh WSW 9.3 mph15.0 kmh 29.36 in994.2 mb 0.17 in4.3 mm 0.00 in0.0 mm 0.25 in6.4 mm
04:30 PM 43.9°F6.6°C 43.4°F6.3°C 98% 4.9 mph NNE7.9 kmh NNE 8.5 mph13.7 kmh 29.36 in994.2 mb 0.17 in4.3 mm 0.00 in0.0 mm 0.25 in6.4 mm
04:35 PM 43.7°F6.5°C 43.2°F6.2°C 98% 1.4 mph N2.3 kmh N 8.5 mph13.7 kmh 29.36 in994.2 mb 0.17 in4.3 mm 0.00 in0.0 mm 0.25 in6.4 mm
04:40 PM 43.3°F6.3°C 42.8°F6.0°C 98% 10.6 mph WNW17.1 kmh WNW 10.6 mph17.1 kmh 29.39 in995.3 mb 0.17 in4.3 mm 0.00 in0.0 mm 0.25 in6.4 mm
04:45 PM 42.3°F5.7°C 41.7°F5.4°C 98% 4.4 mph NW7.1 kmh NW 15.3 mph24.6 kmh 29.39 in995.3 mb 0.12 in3.0 mm 0.00 in0.0 mm 0.25 in6.4 mm
04:50 PM 41.7°F5.4°C 41.2°F5.1°C 98% 10.4 mph N16.7 kmh N 15.3 mph24.6 kmh 29.39 in995.3 mb 0.08 in2.0 mm 0.00 in0.0 mm 0.25 in6.4 mm
04:55 PM 41.2°F5.1°C 40.7°F4.8°C 98% 4.6 mph NNE7.4 kmh NNE 12.8 mph20.6 kmh 29.39 in995.3 mb 0.04 in1.0 mm 0.00 in0.0 mm 0.25 in6.4 mm
05:00 PM 41.0°F5.0°C 40.5°F4.7°C 98% 3.8 mph NNW6.1 kmh NNW 11.7 mph18.8 kmh 29.39 in995.3 mb 0.04 in1.0 mm 0.00 in0.0 mm 0.25 in6.4 mm
05:05 PM 40.6°F4.8°C 40.1°F4.5°C 98% 8.7 mph N14.0 kmh N 13.9 mph22.4 kmh 29.39 in995.3 mb 0.00 in0.0 mm 0.00 in0.0 mm 0.25 in6.4 mm
05:10 PM 40.5°F4.7°C 39.9°F4.4°C 98% 3.8 mph N6.1 kmh N 13.9 mph22.4 kmh 29.39 in995.3 mb 0.00 in0.0 mm 0.00 in0.0 mm 0.25 in6.4 mm
05:15 PM 40.3°F4.6°C 39.8°F4.3°C 98% 3.5 mph NNW5.6 kmh NNW 9.3 mph15.0 kmh 29.39 in995.3 mb 0.00 in0.0 mm 0.00 in0.0 mm 0.25 in6.4 mm
05:20 PM 40.1°F4.5°C 39.6°F4.2°C 98% 3.8 mph W6.1 kmh W 8.5 mph13.7 kmh 29.39 in995.3 mb 0.00 in0.0 mm 0.00 in0.0 mm 0.25 in6.4 mm
05:25 PM 39.7°F4.3°C 39.2°F4.0°C 98% 6.8 mph NW10.9 kmh NW 8.5 mph13.7 kmh 29.39 in995.3 mb 0.00 in0.0 mm 0.00 in0.0 mm 0.25 in6.4 mm
05:30 PM 39.6°F4.2°C 39.0°F3.9°C 98% 7.6 mph N12.2 kmh N 7.6 mph12.2 kmh 29.39 in995.3 mb 0.00 in0.0 mm 0.00 in0.0 mm 0.25 in6.4 mm
05:35 PM 39.2°F4.0°C 38.7°F3.7°C 98% 4.1 mph N6.6 kmh N 7.6 mph12.2 kmh 29.39 in995.3 mb 0.00 in0.0 mm 0.00 in0.0 mm 0.25 in6.4 mm
05:40 PM 39.0°F3.9°C 38.5°F3.6°C 98% 10.4 mph N16.7 kmh N 12.0 mph19.3 kmh 29.39 in995.3 mb 0.00 in0.0 mm 0.00 in0.0 mm 0.25 in6.4 mm
05:45 PM 38.8°F3.8°C 38.3°F3.5°C 98% 9.0 mph N14.5 kmh N 12.0 mph19.3 kmh 29.39 in995.3 mb 0.00 in0.0 mm 0.00 in0.0 mm 0.25 in6.4 mm
05:50 PM 38.7°F3.7°C 38.1°F3.4°C 98% 5.7 mph WSW9.2 kmh WSW 9.0 mph14.5 kmh 29.39 in995.3 mb 0.00 in0.0 mm 0.00 in0.0 mm 0.25 in6.4 mm
05:55 PM 38.5°F3.6°C 38.0°F3.3°C 98% 3.5 mph SW5.6 kmh SW 7.1 mph11.4 kmh 29.41 in995.9 mb 0.00 in0.0 mm 0.00 in0.0 mm 0.25 in6.4 mm
06:00 PM 38.5°F3.6°C 38.0°F3.3°C 98% 1.6 mph NW2.6 kmh NW 5.7 mph9.2 kmh 29.41 in995.9 mb 0.00 in0.0 mm 0.00 in0.0 mm 0.25 in6.4 mm
06:05 PM 38.1°F3.4°C 37.6°F3.1°C 98% Calm Calm 5.7 mph9.2 kmh 29.41 in995.9 mb 0.00 in0.0 mm 0.00 in0.0 mm 0.25 in6.4 mm
06:10 PM 38.1°F3.4°C 37.6°F3.1°C 98% 4.6 mph W7.4 kmh W 9.6 mph15.4 kmh 29.41 in995.9 mb 0.00 in0.0 mm 0.00 in0.0 mm 0.25 in6.4 mm
06:15 PM 38.1°F3.4°C 37.6°F3.1°C 98% 10.4 mph WSW16.7 kmh WSW 10.4 mph16.7 kmh 29.41 in995.9 mb 0.00 in0.0 mm 0.00 in0.0 mm 0.25 in6.4 mm
06:20 PM 37.9°F3.3°C 37.4°F3.0°C 98% 5.2 mph WSW8.4 kmh WSW 10.4 mph16.7 kmh 29.41 in995.9 mb 0.00 in0.0 mm 0.00 in0.0 mm 0.25 in6.4 mm
06:25 PM 37.8°F3.2°C 37.2°F2.9°C 98% 2.5 mph WSW4.0 kmh WSW 6.0 mph9.7 kmh 29.41 in995.9 mb 0.00 in0.0 mm 0.00 in0.0 mm 0.25 in6.4 mm
06:30 PM 37.8°F3.2°C 37.2°F2.9°C 98% 3.0 mph WSW4.8 kmh WSW 6.0 mph9.7 kmh 29.41 in995.9 mb 0.00 in0.0 mm 0.00 in0.0 mm 0.25 in6.4 mm
06:35 PM 37.6°F3.1°C 37.1°F2.8°C 98% 4.4 mph E7.1 kmh E 5.2 mph8.4 kmh 29.41 in995.9 mb 0.00 in0.0 mm 0.00 in0.0 mm 0.25 in6.4 mm
06:40 PM 37.6°F3.1°C 37.1°F2.8°C 98% 2.7 mph ESE4.3 kmh ESE 5.2 mph8.4 kmh 29.41 in995.9 mb 0.00 in0.0 mm 0.00 in0.0 mm 0.25 in6.4 mm
06:45 PM 37.4°F3.0°C 36.9°F2.7°C 98% 4.6 mph SSE7.4 kmh SSE 6.8 mph10.9 kmh 29.41 in995.9 mb 0.00 in0.0 mm 0.00 in0.0 mm 0.25 in6.4 mm
06:50 PM 37.4°F3.0°C 36.9°F2.7°C 98% 3.5 mph S5.6 kmh S 6.8 mph10.9 kmh 29.41 in995.9 mb 0.00 in0.0 mm 0.00 in0.0 mm 0.25 in6.4 mm
06:55 PM 37.4°F3.0°C 36.9°F2.7°C 98% 5.2 mph S8.4 kmh S 7.6 mph12.2 kmh 29.39 in995.3 mb 0.00 in0.0 mm 0.00 in0.0 mm 0.25 in6.4 mm
07:00 PM 37.4°F3.0°C 36.9°F2.7°C 98% 7.1 mph S11.4 kmh S 7.6 mph12.2 kmh 29.39 in995.3 mb 0.00 in0.0 mm 0.00 in0.0 mm 0.25 in6.4 mm
07:05 PM 37.4°F3.0°C 36.9°F2.7°C 98% 3.8 mph S6.1 kmh S 7.1 mph11.4 kmh 29.39 in995.3 mb 0.00 in0.0 mm 0.00 in0.0 mm 0.25 in6.4 mm
07:10 PM 37.4°F3.0°C 36.9°F2.7°C 98% 2.7 mph S4.3 kmh S 7.1 mph11.4 kmh 29.39 in995.3 mb 0.00 in0.0 mm 0.00 in0.0 mm 0.25 in6.4 mm
07:15 PM 37.2°F2.9°C 36.7°F2.6°C 98% 1.6 mph SSW2.6 kmh SSW 6.5 mph10.5 kmh 29.39 in995.3 mb 0.00 in0.0 mm 0.00 in0.0 mm 0.25 in6.4 mm
07:20 PM 37.2°F2.9°C 36.7°F2.6°C 98% 2.5 mph SSW4.0 kmh SSW 7.9 mph12.7 kmh 29.39 in995.3 mb 0.00 in0.0 mm 0.00 in0.0 mm 0.25 in6.4 mm
07:25 PM 37.4°F3.0°C 36.9°F2.7°C 98% 8.5 mph S13.7 kmh S 8.5 mph13.7 kmh 29.39 in995.3 mb 0.00 in0.0 mm 0.00 in0.0 mm 0.25 in6.4 mm
07:30 PM 37.4°F3.0°C 36.9°F2.7°C 98% 6.8 mph S10.9 kmh S 8.5 mph13.7 kmh 29.39 in995.3 mb 0.00 in0.0 mm 0.00 in0.0 mm 0.25 in6.4 mm
07:35 PM 37.6°F3.1°C 37.1°F2.8°C 98% 3.5 mph SSW5.6 kmh SSW 11.7 mph18.8 kmh 29.39 in995.3 mb 0.00 in0.0 mm 0.00 in0.0 mm 0.25 in6.4 mm
07:40 PM 37.6°F3.1°C 37.1°F2.8°C 98% 6.8 mph SSW10.9 kmh SSW 11.7 mph18.8 kmh 29.39 in995.3 mb 0.00 in0.0 mm 0.00 in0.0 mm 0.25 in6.4 mm
07:45 PM 37.6°F3.1°C 37.1°F2.8°C 98% 5.2 mph SSW8.4 kmh SSW 8.5 mph13.7 kmh 29.39 in995.3 mb 0.00 in0.0 mm 0.00 in0.0 mm 0.25 in6.4 mm
07:50 PM 37.8°F3.2°C 37.2°F2.9°C 98% 5.2 mph S8.4 kmh S 12.3 mph19.8 kmh 29.39 in995.3 mb 0.00 in0.0 mm 0.00 in0.0 mm 0.25 in6.4 mm
07:55 PM 37.9°F3.3°C 37.4°F3.0°C 98% 7.6 mph SW12.2 kmh SW 12.3 mph19.8 kmh 29.39 in995.3 mb 0.00 in0.0 mm 0.00 in0.0 mm 0.25 in6.4 mm
08:00 PM 37.9°F3.3°C 37.4°F3.0°C 98% 4.4 mph SW7.1 kmh SW 7.6 mph12.2 kmh 29.39 in995.3 mb 0.00 in0.0 mm 0.00 in0.0 mm 0.25 in6.4 mm
08:05 PM 37.9°F3.3°C 37.4°F3.0°C 98% 4.6 mph WSW7.4 kmh WSW 9.0 mph14.5 kmh 29.39 in995.3 mb 0.00 in0.0 mm 0.00 in0.0 mm 0.25 in6.4 mm
08:10 PM 38.1°F3.4°C 37.6°F3.1°C 98% 4.1 mph WSW6.6 kmh WSW 9.0 mph14.5 kmh 29.39 in995.3 mb 0.00 in0.0 mm 0.00 in0.0 mm 0.25 in6.4 mm
08:15 PM 38.1°F3.4°C 37.6°F3.1°C 98% 5.7 mph SW9.2 kmh SW 8.5 mph13.7 kmh 29.39 in995.3 mb 0.00 in0.0 mm 0.00 in0.0 mm 0.25 in6.4 mm
08:20 PM 38.3°F3.5°C 37.8°F3.2°C 98% 5.2 mph SW8.4 kmh SW 7.6 mph12.2 kmh 29.39 in995.3 mb 0.00 in0.0 mm 0.00 in0.0 mm 0.25 in6.4 mm
08:25 PM 38.3°F3.5°C 37.8°F3.2°C 98% 2.5 mph S4.0 kmh S 7.1 mph11.4 kmh 29.36 in994.2 mb 0.00 in0.0 mm 0.00 in0.0 mm 0.25 in6.4 mm
08:30 PM 38.3°F3.5°C 37.8°F3.2°C 98% 3.3 mph SSE5.3 kmh SSE 6.5 mph10.5 kmh 29.36 in994.2 mb 0.00 in0.0 mm 0.00 in0.0 mm 0.25 in6.4 mm
08:35 PM 38.5°F3.6°C 38.0°F3.3°C 98% 3.0 mph SSE4.8 kmh SSE 7.6 mph12.2 kmh 29.36 in994.2 mb 0.00 in0.0 mm 0.00 in0.0 mm 0.25 in6.4 mm
08:40 PM 38.5°F3.6°C 38.0°F3.3°C 98% 3.8 mph S6.1 kmh S 7.6 mph12.2 kmh 29.36 in994.2 mb 0.00 in0.0 mm 0.00 in0.0 mm 0.25 in6.4 mm
08:45 PM 38.5°F3.6°C 38.0°F3.3°C 98% 3.5 mph SSW5.6 kmh SSW 8.5 mph13.7 kmh 29.36 in994.2 mb 0.00 in0.0 mm 0.00 in0.0 mm 0.25 in6.4 mm
08:50 PM 38.7°F3.7°C 38.1°F3.4°C 98% 4.6 mph SW7.4 kmh SW 10.6 mph17.1 kmh 29.36 in994.2 mb 0.00 in0.0 mm 0.00 in0.0 mm 0.25 in6.4 mm
08:55 PM 38.7°F3.7°C 38.1°F3.4°C 98% 7.9 mph SSW12.7 kmh SSW 10.6 mph17.1 kmh 29.36 in994.2 mb 0.00 in0.0 mm 0.00 in0.0 mm 0.25 in6.4 mm
09:00 PM 38.8°F3.8°C 38.3°F3.5°C 98% 2.7 mph SSW4.3 kmh SSW 9.8 mph15.8 kmh 29.36 in994.2 mb 0.00 in0.0 mm 0.00 in0.0 mm 0.25 in6.4 mm
09:05 PM 38.8°F3.8°C 38.3°F3.5°C 98% 3.5 mph S5.6 kmh S 12.0 mph19.3 kmh 29.36 in994.2 mb 0.00 in0.0 mm 0.00 in0.0 mm 0.25 in6.4 mm
09:10 PM 39.0°F3.9°C 38.5°F3.6°C 98% 9.3 mph S15.0 kmh S 12.0 mph19.3 kmh 29.36 in994.2 mb 0.00 in0.0 mm 0.00 in0.0 mm 0.25 in6.4 mm
09:15 PM 39.0°F3.9°C 38.5°F3.6°C 98% 3.3 mph ENE5.3 kmh ENE 9.3 mph15.0 kmh 29.36 in994.2 mb 0.00 in0.0 mm 0.00 in0.0 mm 0.25 in6.4 mm
09:20 PM 38.7°F3.7°C 38.1°F3.4°C 98% 8.2 mph WNW13.2 kmh WNW 10.6 mph17.1 kmh 29.36 in994.2 mb 0.00 in0.0 mm 0.00 in0.0 mm 0.25 in6.4 mm
09:25 PM 38.5°F3.6°C 38.0°F3.3°C 98% 18.6 mph SSW29.9 kmh SSW 18.6 mph29.9 kmh 29.36 in994.2 mb 0.04 in1.0 mm 0.48 in12.2 mm 0.29 in7.4 mm
09:30 PM 37.9°F3.3°C 37.4°F3.0°C 98% 4.9 mph S7.9 kmh S 18.6 mph29.9 kmh 29.36 in994.2 mb 0.04 in1.0 mm 0.00 in0.0 mm 0.29 in7.4 mm
09:35 PM 37.8°F3.2°C 37.2°F2.9°C 98% 4.4 mph S7.1 kmh S 18.6 mph29.9 kmh 29.36 in994.2 mb 0.04 in1.0 mm 0.00 in0.0 mm 0.29 in7.4 mm
09:40 PM 37.6°F3.1°C 37.1°F2.8°C 98% 3.0 mph SSW4.8 kmh SSW 4.9 mph7.9 kmh 29.33 in993.2 mb 0.04 in1.0 mm 0.00 in0.0 mm 0.29 in7.4 mm
09:45 PM 37.6°F3.1°C 37.1°F2.8°C 98% 3.5 mph SW5.6 kmh SW 9.0 mph14.5 kmh 29.33 in993.2 mb 0.04 in1.0 mm 0.00 in0.0 mm 0.29 in7.4 mm
09:50 PM 37.8°F3.2°C 37.2°F2.9°C 98% 3.0 mph SW4.8 kmh SW 9.0 mph14.5 kmh 29.33 in993.2 mb 0.04 in1.0 mm 0.00 in0.0 mm 0.29 in7.4 mm
09:55 PM 37.8°F3.2°C 37.2°F2.9°C 98% 6.0 mph S9.7 kmh S 6.0 mph9.7 kmh 29.33 in993.2 mb 0.04 in1.0 mm 0.00 in0.0 mm 0.29 in7.4 mm
10:00 PM 37.9°F3.3°C 37.4°F3.0°C 98% 4.1 mph SSW6.6 kmh SSW 10.6 mph17.1 kmh 29.33 in993.2 mb 0.04 in1.0 mm 0.00 in0.0 mm 0.29 in7.4 mm
10:05 PM 37.9°F3.3°C 37.4°F3.0°C 98% 9.0 mph S14.5 kmh S 10.6 mph17.1 kmh 29.33 in993.2 mb 0.04 in1.0 mm 0.00 in0.0 mm 0.29 in7.4 mm
10:10 PM 37.9°F3.3°C 37.4°F3.0°C 98% 7.1 mph S11.4 kmh S 9.3 mph15.0 kmh 29.33 in993.2 mb 0.04 in1.0 mm 0.00 in0.0 mm 0.29 in7.4 mm
10:15 PM 37.9°F3.3°C 37.4°F3.0°C 98% 7.1 mph S11.4 kmh S 9.3 mph15.0 kmh 29.33 in993.2 mb 0.04 in1.0 mm 0.00 in0.0 mm 0.29 in7.4 mm
10:20 PM 37.9°F3.3°C 37.4°F3.0°C 98% 4.9 mph S7.9 kmh S 9.0 mph14.5 kmh 29.33 in993.2 mb 0.04 in1.0 mm 0.00 in0.0 mm 0.29 in7.4 mm
10:25 PM 37.9°F3.3°C 37.4°F3.0°C 98% 11.7 mph SSE18.8 kmh SSE 11.7 mph18.8 kmh 29.33 in993.2 mb 0.00 in0.0 mm 0.00 in0.0 mm 0.29 in7.4 mm
10:30 PM 38.1°F3.4°C 37.6°F3.1°C 98% 4.9 mph SSE7.9 kmh SSE 11.7 mph18.8 kmh 29.33 in993.2 mb 0.00 in0.0 mm 0.00 in0.0 mm 0.29 in7.4 mm
10:35 PM 37.9°F3.3°C 37.4°F3.0°C 98% 7.4 mph S11.9 kmh S 11.7 mph18.8 kmh 29.33 in993.2 mb 0.00 in0.0 mm 0.00 in0.0 mm 0.29 in7.4 mm
10:40 PM 37.9°F3.3°C 37.4°F3.0°C 98% 7.1 mph S11.4 kmh S 10.6 mph17.1 kmh 29.33 in993.2 mb 0.00 in0.0 mm 0.00 in0.0 mm 0.29 in7.4 mm
10:45 PM 37.9°F3.3°C 37.4°F3.0°C 98% 7.1 mph S11.4 kmh S 10.6 mph17.1 kmh 29.33 in993.2 mb 0.00 in0.0 mm 0.00 in0.0 mm 0.29 in7.4 mm
10:50 PM 37.8°F3.2°C 37.2°F2.9°C 98% 4.9 mph S7.9 kmh S 7.4 mph11.9 kmh 29.33 in993.2 mb 0.00 in0.0 mm 0.00 in0.0 mm 0.29 in7.4 mm
10:55 PM 37.8°F3.2°C 37.2°F2.9°C 98% 4.1 mph S6.6 kmh S 12.0 mph19.3 kmh 29.36 in994.2 mb 0.00 in0.0 mm 0.00 in0.0 mm 0.29 in7.4 mm
11:00 PM 37.8°F3.2°C 37.2°F2.9°C 98% 6.0 mph S9.7 kmh S 12.0 mph19.3 kmh 29.36 in994.2 mb 0.00 in0.0 mm 0.00 in0.0 mm 0.29 in7.4 mm
11:05 PM 37.8°F3.2°C 37.2°F2.9°C 98% 9.6 mph SSE15.4 kmh SSE 10.6 mph17.1 kmh 29.36 in994.2 mb 0.00 in0.0 mm 0.00 in0.0 mm 0.29 in7.4 mm
11:10 PM 37.8°F3.2°C 37.2°F2.9°C 98% 7.6 mph SW12.2 kmh SW 10.4 mph16.7 kmh 29.36 in994.2 mb 0.00 in0.0 mm 0.00 in0.0 mm 0.29 in7.4 mm
11:15 PM 37.8°F3.2°C 37.2°F2.9°C 98% 6.8 mph SW10.9 kmh SW 7.6 mph12.2 kmh 29.36 in994.2 mb 0.00 in0.0 mm 0.00 in0.0 mm 0.29 in7.4 mm
11:20 PM 37.8°F3.2°C 37.2°F2.9°C 98% 12.3 mph NW19.8 kmh NW 12.3 mph19.8 kmh 29.36 in994.2 mb 0.00 in0.0 mm 0.00 in0.0 mm 0.29 in7.4 mm
11:25 PM 37.8°F3.2°C 37.2°F2.9°C 98% 14.7 mph WNW23.7 kmh WNW 16.6 mph26.7 kmh 29.36 in994.2 mb 0.00 in0.0 mm 0.00 in0.0 mm 0.29 in7.4 mm
11:30 PM 37.8°F3.2°C 37.2°F2.9°C 98% 4.9 mph SE7.9 kmh SE 16.6 mph26.7 kmh 29.36 in994.2 mb 0.00 in0.0 mm 0.00 in0.0 mm 0.29 in7.4 mm
11:35 PM 37.8°F3.2°C 37.2°F2.9°C 98% 12.3 mph NNE19.8 kmh NNE 12.3 mph19.8 kmh 29.36 in994.2 mb 0.00 in0.0 mm 0.00 in0.0 mm 0.29 in7.4 mm
11:40 PM 37.6°F3.1°C 37.1°F2.8°C 98% 14.5 mph W23.3 kmh W 14.5 mph23.3 kmh 29.39 in995.3 mb 0.00 in0.0 mm 0.00 in0.0 mm 0.29 in7.4 mm
11:45 PM 37.6°F3.1°C 37.1°F2.8°C 98% 4.6 mph WSW7.4 kmh WSW 14.5 mph23.3 kmh 29.39 in995.3 mb 0.00 in0.0 mm 0.00 in0.0 mm 0.29 in7.4 mm
11:50 PM 37.6°F3.1°C 37.1°F2.8°C 98% 6.5 mph W10.5 kmh W 12.6 mph20.3 kmh 29.39 in995.3 mb 0.00 in0.0 mm 0.00 in0.0 mm 0.29 in7.4 mm
11:55 PM 37.4°F3.0°C 36.9°F2.7°C 98% 15.3 mph NW24.6 kmh NW 15.3 mph24.6 kmh 29.39 in995.3 mb 0.00 in0.0 mm 0.00 in0.0 mm 0.29 in7.4 mm